Wesleyville, Pennsylvania
Current Conditions -  °F | °C
As of 4:51 PM on Friday 28 Nov 2014 (Local Time) from KERI Reporting Station
Overcast Overcast  
Wind Chill: 18°   Ceiling: 4300
Heat Index: 27°   Visibility: 10mi
Dew Point: 15°   Wind: 9mph
Humidity: 61%   Direction: 220°SW
Pressure: 30.23"   Gusts: NA
Location:  42.1111°N, 79.9606°W
Report Text: KERI 282151Z 22008KT 10SM SCT035 OVC043 M03/M09 A3023 RMK AO2 SLP247 T10281094
Loading
Personal Weather Stations






























Interactive Weather Map New forecast layout! Learn more

10-Day Weather Forecast

Advertisements
Track Severe Weather on mobile